メインページ
METAR-TAF:

METAR-TAF

空港 :

ダンビル, イリノイ州, アメリカ合衆国

緯度: 40-11-58N, 経度: 087-35-44W, 海抜: 212m

現時点の気象観測

当レポートは32分前の05:55(UTC)に作成
無風
気温 22°C
湿度 94%
気圧 1016 hPa
視程: 16.1km
晴天

METAR: KDNV 270555Z AUTO 00000KT 10SM CLR 22/21 A3000 RMK AO2 T02150205 10259 20213 403040191

時間: 01:27 (06:27 UTC)


TAF: 見つかりません

4,000以上の空港の気象観測と天気予報(METAR報とTAF報)

利用可能な観測所は地図上に黄色い丸と赤い丸で示す。

丸の上にカーソルを重ねると観測所名を参照できる。

次にクリックすると気象観測と天気予報を参照できる。

マップの切り替え:黒色「×」印の緑ボタンをクリックして拡大、「-」印の緑ボタンをクリックして縮小、緑色の三角印をクリックして隣りの地図に切り替え


METAR-TAF: